sensor_id;sensor_type;location;lat;lon;timestamp;pressure;altitude;pressure_sealevel;temperature;humidity
15314;BME280;7757;52.626;4.746;2023-02-16T00:02:22;102111.44;;;15.21;64.81
15314;BME280;7757;52.626;4.746;2023-02-16T00:05:21;102100.66;;;15.21;64.77
15314;BME280;7757;52.626;4.746;2023-02-16T00:08:07;102108.94;;;15.19;64.82
15314;BME280;7757;52.626;4.746;2023-02-16T00:10:52;102098.34;;;15.18;64.81
15314;BME280;7757;52.626;4.746;2023-02-16T00:13:57;102102.72;;;15.19;64.90
15314;BME280;7757;52.626;4.746;2023-02-16T00:16:42;102097.69;;;15.16;65.08
15314;BME280;7757;52.626;4.746;2023-02-16T00:19:29;102091.31;;;15.17;64.99
15314;BME280;7757;52.626;4.746;2023-02-16T00:22:16;102093.53;;;15.13;64.58
15314;BME280;7757;52.626;4.746;2023-02-16T00:25:02;102095.84;;;15.16;64.68
15314;BME280;7757;52.626;4.746;2023-02-16T00:27:47;102091.94;;;15.19;65.43
15314;BME280;7757;52.626;4.746;2023-02-16T00:30:34;102088.31;;;15.12;65.24
15314;BME280;7757;52.626;4.746;2023-02-16T00:33:20;102081.91;;;15.13;65.42
15314;BME280;7757;52.626;4.746;2023-02-16T00:36:06;102084.78;;;15.11;64.79
15314;BME280;7757;52.626;4.746;2023-02-16T00:38:51;102071.88;;;15.06;65.00
15314;BME280;7757;52.626;4.746;2023-02-16T00:41:37;102072.69;;;15.07;65.13
15314;BME280;7757;52.626;4.746;2023-02-16T00:44:36;102082.91;;;15.12;65.36
15314;BME280;7757;52.626;4.746;2023-02-16T00:47:29;102082.09;;;15.11;64.55
15314;BME280;7757;52.626;4.746;2023-02-16T00:50:17;102063.13;;;15.04;64.65
15314;BME280;7757;52.626;4.746;2023-02-16T00:53:03;102069.16;;;15.06;65.21
15314;BME280;7757;52.626;4.746;2023-02-16T00:55:49;102069.00;;;15.08;64.45
15314;BME280;7757;52.626;4.746;2023-02-16T00:58:34;102074.56;;;15.06;65.01
15314;BME280;7757;52.626;4.746;2023-02-16T01:01:23;102071.03;;;15.06;65.55
15314;BME280;7757;52.626;4.746;2023-02-16T01:04:16;102059.69;;;14.96;64.84
15314;BME280;7757;52.626;4.746;2023-02-16T01:07:07;102068.53;;;15.04;65.41
15314;BME280;7757;52.626;4.746;2023-02-16T01:10:13;102070.66;;;15.09;64.46
15314;BME280;7757;52.626;4.746;2023-02-16T01:13:16;102072.06;;;15.05;64.72
15314;BME280;7757;52.626;4.746;2023-02-16T01:16:02;102065.56;;;14.99;64.87
15314;BME280;7757;52.626;4.746;2023-02-16T01:18:47;102074.94;;;15.03;64.62
15314;BME280;7757;52.626;4.746;2023-02-16T01:21:34;102075.75;;;15.04;64.80
15314;BME280;7757;52.626;4.746;2023-02-16T01:24:20;102072.91;;;15.05;64.97
15314;BME280;7757;52.626;4.746;2023-02-16T01:27:05;102077.44;;;15.05;64.54
15314;BME280;7757;52.626;4.746;2023-02-16T01:29:54;102071.38;;;15.03;65.30
15314;BME280;7757;52.626;4.746;2023-02-16T01:32:39;102066.19;;;15.01;64.46
15314;BME280;7757;52.626;4.746;2023-02-16T01:35:29;102052.25;;;14.98;64.08
15314;BME280;7757;52.626;4.746;2023-02-16T01:38:17;102050.78;;;14.95;64.88
15314;BME280;7757;52.626;4.746;2023-02-16T01:41:08;102050.69;;;15.03;64.38
15314;BME280;7757;52.626;4.746;2023-02-16T01:44:10;102051.03;;;15.00;64.78
15314;BME280;7757;52.626;4.746;2023-02-16T01:47:01;102061.81;;;15.00;65.48
15314;BME280;7757;52.626;4.746;2023-02-16T01:49:50;102044.06;;;14.91;64.86
15314;BME280;7757;52.626;4.746;2023-02-16T01:52:37;102040.84;;;14.96;64.80
15314;BME280;7757;52.626;4.746;2023-02-16T01:55:30;102042.13;;;15.00;64.57
15314;BME280;7757;52.626;4.746;2023-02-16T01:58:22;102035.94;;;14.99;64.32
15314;BME280;7757;52.626;4.746;2023-02-16T02:01:34;102029.88;;;14.97;65.24
15314;BME280;7757;52.626;4.746;2023-02-16T02:04:23;102040.28;;;15.00;65.20
15314;BME280;7757;52.626;4.746;2023-02-16T02:07:32;102035.09;;;14.99;64.87
15314;BME280;7757;52.626;4.746;2023-02-16T02:10:24;102030.53;;;14.99;64.56
15314;BME280;7757;52.626;4.746;2023-02-16T02:13:20;102027.16;;;14.97;65.22
15314;BME280;7757;52.626;4.746;2023-02-16T02:16:07;102021.69;;;14.91;64.31
15314;BME280;7757;52.626;4.746;2023-02-16T02:18:53;102024.47;;;14.97;65.07
15314;BME280;7757;52.626;4.746;2023-02-16T02:21:59;102022.81;;;14.96;64.33
15314;BME280;7757;52.626;4.746;2023-02-16T02:25:22;102025.69;;;14.95;65.28
15314;BME280;7757;52.626;4.746;2023-02-16T02:28:17;102023.84;;;14.95;64.96
15314;BME280;7757;52.626;4.746;2023-02-16T02:31:06;102032.56;;;14.97;65.36
15314;BME280;7757;52.626;4.746;2023-02-16T02:34:02;102029.03;;;14.97;65.31
15314;BME280;7757;52.626;4.746;2023-02-16T02:37:02;102027.53;;;14.94;64.21
15314;BME280;7757;52.626;4.746;2023-02-16T02:40:07;102011.31;;;14.88;64.73
15314;BME280;7757;52.626;4.746;2023-02-16T02:43:03;102007.41;;;14.90;64.84
15314;BME280;7757;52.626;4.746;2023-02-16T02:45:53;102006.00;;;14.94;65.23
15314;BME280;7757;52.626;4.746;2023-02-16T02:48:40;102007.41;;;14.90;65.25
15314;BME280;7757;52.626;4.746;2023-02-16T02:51:26;102008.88;;;14.93;64.19
15314;BME280;7757;52.626;4.746;2023-02-16T02:54:18;102011.75;;;14.91;64.64
15314;BME280;7757;52.626;4.746;2023-02-16T02:57:25;102006.09;;;14.86;64.92
15314;BME280;7757;52.626;4.746;2023-02-16T03:00:31;102001.34;;;14.88;64.96
15314;BME280;7757;52.626;4.746;2023-02-16T03:03:35;102010.91;;;14.91;64.76
15314;BME280;7757;52.626;4.746;2023-02-16T03:06:26;102004.50;;;14.92;64.37
15314;BME280;7757;52.626;4.746;2023-02-16T03:09:14;101989.94;;;14.86;64.52
15314;BME280;7757;52.626;4.746;2023-02-16T03:12:01;101999.13;;;14.92;64.84
15314;BME280;7757;52.626;4.746;2023-02-16T03:15:06;101990.78;;;14.87;64.73
15314;BME280;7757;52.626;4.746;2023-02-16T03:17:54;101995.16;;;14.88;64.79
15314;BME280;7757;52.626;4.746;2023-02-16T03:21:01;101979.72;;;14.82;64.57
15314;BME280;7757;52.626;4.746;2023-02-16T03:24:08;101988.06;;;14.87;64.74
15314;BME280;7757;52.626;4.746;2023-02-16T03:27:16;101995.16;;;14.88;64.62
15314;BME280;7757;52.626;4.746;2023-02-16T03:30:22;101983.31;;;14.89;64.60
15314;BME280;7757;52.626;4.746;2023-02-16T03:33:09;101979.91;;;14.80;64.74
15314;BME280;7757;52.626;4.746;2023-02-16T03:35:55;101980.53;;;14.82;65.05
15314;BME280;7757;52.626;4.746;2023-02-16T03:38:43;101989.75;;;14.88;64.82
15314;BME280;7757;52.626;4.746;2023-02-16T03:41:31;101973.28;;;14.83;64.71
15314;BME280;7757;52.626;4.746;2023-02-16T03:44:17;101984.53;;;14.86;65.19
15314;BME280;7757;52.626;4.746;2023-02-16T03:47:02;101968.19;;;14.73;64.53
15314;BME280;7757;52.626;4.746;2023-02-16T03:49:48;101982.69;;;14.87;64.90
15314;BME280;7757;52.626;4.746;2023-02-16T03:52:33;101976.19;;;14.81;64.39
15314;BME280;7757;52.626;4.746;2023-02-16T03:55:20;101985.84;;;14.76;64.36
15314;BME280;7757;52.626;4.746;2023-02-16T03:58:07;101985.56;;;14.85;64.74
15314;BME280;7757;52.626;4.746;2023-02-16T04:00:53;101994.69;;;14.84;64.67
15314;BME280;7757;52.626;4.746;2023-02-16T04:03:38;101990.13;;;14.85;64.85
15314;BME280;7757;52.626;4.746;2023-02-16T04:06:24;101986.75;;;14.83;64.86
15314;BME280;7757;52.626;4.746;2023-02-16T04:09:09;101990.13;;;14.85;64.57
15314;BME280;7757;52.626;4.746;2023-02-16T04:11:56;101985.56;;;14.85;63.90
15314;BME280;7757;52.626;4.746;2023-02-16T04:15:12;101983.91;;;14.84;64.68
15314;BME280;7757;52.626;4.746;2023-02-16T04:17:58;101989.28;;;14.84;64.45
15314;BME280;7757;52.626;4.746;2023-02-16T04:20:43;101998.22;;;14.85;64.73
15314;BME280;7757;52.626;4.746;2023-02-16T04:23:29;101999.22;;;14.84;64.11
15314;BME280;7757;52.626;4.746;2023-02-16T04:26:14;102000.22;;;14.83;64.44
15314;BME280;7757;52.626;4.746;2023-02-16T04:29:01;101993.94;;;14.76;64.88
15314;BME280;7757;52.626;4.746;2023-02-16T04:31:46;101998.56;;;14.82;64.50
15314;BME280;7757;52.626;4.746;2023-02-16T04:34:32;101996.91;;;14.81;64.52
15314;BME280;7757;52.626;4.746;2023-02-16T04:37:18;101997.75;;;14.81;64.62
15314;BME280;7757;52.626;4.746;2023-02-16T04:40:05;101992.53;;;14.80;64.48
15314;BME280;7757;52.626;4.746;2023-02-16T04:42:50;101988.19;;;14.79;64.34
15314;BME280;7757;52.626;4.746;2023-02-16T04:45:37;101987.97;;;14.80;63.75
15314;BME280;7757;52.626;4.746;2023-02-16T04:48:23;101976.19;;;14.81;64.53
15314;BME280;7757;52.626;4.746;2023-02-16T04:51:08;101979.91;;;14.80;65.03
15314;BME280;7757;52.626;4.746;2023-02-16T04:53:53;101970.34;;;14.78;63.95
15314;BME280;7757;52.626;4.746;2023-02-16T04:56:39;101972.44;;;14.68;64.60
15314;BME280;7757;52.626;4.746;2023-02-16T04:59:24;101980.09;;;14.79;64.62
15314;BME280;7757;52.626;4.746;2023-02-16T05:02:11;101978.22;;;14.79;64.63
15314;BME280;7757;52.626;4.746;2023-02-16T05:04:56;101973.88;;;14.78;65.04
15314;BME280;7757;52.626;4.746;2023-02-16T05:07:41;101974.88;;;14.77;64.17
15314;BME280;7757;52.626;4.746;2023-02-16T05:10:27;101967.38;;;14.73;64.51
15314;BME280;7757;52.626;4.746;2023-02-16T05:13:13;101970.88;;;14.73;64.03
15314;BME280;7757;52.626;4.746;2023-02-16T05:16:30;101984.81;;;14.77;64.75
15314;BME280;7757;52.626;4.746;2023-02-16T05:19:17;101964.84;;;14.71;65.04
15314;BME280;7757;52.626;4.746;2023-02-16T05:22:02;101965.69;;;14.72;64.50
15314;BME280;7757;52.626;4.746;2023-02-16T05:24:48;101978.59;;;14.76;64.16
15314;BME280;7757;52.626;4.746;2023-02-16T05:27:33;101988.53;;;14.76;63.95
15314;BME280;7757;52.626;4.746;2023-02-16T05:30:19;101978.78;;;14.75;64.43
15314;BME280;7757;52.626;4.746;2023-02-16T05:33:04;101969.97;;;14.66;64.08
15314;BME280;7757;52.626;4.746;2023-02-16T05:35:51;101978.13;;;14.73;64.77
15314;BME280;7757;52.626;4.746;2023-02-16T05:38:36;101975.63;;;14.71;63.77
15314;BME280;7757;52.626;4.746;2023-02-16T05:41:21;101959.84;;;14.68;64.62
15314;BME280;7757;52.626;4.746;2023-02-16T05:44:10;101973.41;;;14.75;64.13
15314;BME280;7757;52.626;4.746;2023-02-16T05:46:56;101974.97;;;14.69;63.70
15314;BME280;7757;52.626;4.746;2023-02-16T05:49:41;101967.75;;;14.70;64.43
15314;BME280;7757;52.626;4.746;2023-02-16T05:52:28;101969.75;;;14.68;64.51
15314;BME280;7757;52.626;4.746;2023-02-16T05:55:13;101972.09;;;14.71;64.44
15314;BME280;7757;52.626;4.746;2023-02-16T05:57:59;101965.59;;;14.65;64.37
15314;BME280;7757;52.626;4.746;2023-02-16T06:00:44;101983.91;;;14.70;64.02
15314;BME280;7757;52.626;4.746;2023-02-16T06:03:30;101987.22;;;14.72;64.16
15314;BME280;7757;52.626;4.746;2023-02-16T06:06:15;101988.25;;;14.71;64.02
15314;BME280;7757;52.626;4.746;2023-02-16T06:09:02;101985.75;;;14.69;63.93
15314;BME280;7757;52.626;4.746;2023-02-16T06:11:48;101973.03;;;14.63;64.94
15314;BME280;7757;52.626;4.746;2023-02-16T06:14:34;101994.66;;;14.70;64.13
15314;BME280;7757;52.626;4.746;2023-02-16T06:17:19;101987.59;;;14.69;64.68
15314;BME280;7757;52.626;4.746;2023-02-16T06:20:06;101988.44;;;14.69;63.99
15314;BME280;7757;52.626;4.746;2023-02-16T06:22:51;101981.84;;;14.72;64.62
15314;BME280;7757;52.626;4.746;2023-02-16T06:25:40;101980.00;;;14.72;65.35
15314;BME280;7757;52.626;4.746;2023-02-16T06:28:26;101968.28;;;14.65;65.30
15314;BME280;7757;52.626;4.746;2023-02-16T06:31:11;101978.13;;;14.73;64.97
15314;BME280;7757;52.626;4.746;2023-02-16T06:33:57;101983.44;;;14.81;64.52
15314;BME280;7757;52.626;4.746;2023-02-16T06:36:43;101980.75;;;14.81;64.54
15314;BME280;7757;52.626;4.746;2023-02-16T06:39:28;101984.06;;;14.83;64.74
15314;BME280;7757;52.626;4.746;2023-02-16T06:42:15;101991.41;;;14.89;65.24
15314;BME280;7757;52.626;4.746;2023-02-16T06:45:01;101994.38;;;14.94;64.30
15314;BME280;7757;52.626;4.746;2023-02-16T06:47:46;101987.69;;;14.90;65.05
15314;BME280;7757;52.626;4.746;2023-02-16T06:50:32;101993.56;;;14.93;65.17
15314;BME280;7757;52.626;4.746;2023-02-16T06:53:17;101985.84;;;14.90;64.50
15314;BME280;7757;52.626;4.746;2023-02-16T06:56:03;101996.25;;;14.93;63.92
15314;BME280;7757;52.626;4.746;2023-02-16T06:58:51;101996.91;;;14.95;65.12
15314;BME280;7757;52.626;4.746;2023-02-16T07:01:36;101988.97;;;14.94;64.07
15314;BME280;7757;52.626;4.746;2023-02-16T07:04:21;102000.44;;;14.96;64.92
15314;BME280;7757;52.626;4.746;2023-02-16T07:07:07;101994.19;;;14.95;65.10
15314;BME280;7757;52.626;4.746;2023-02-16T07:09:52;101997.91;;;14.94;64.76
15314;BME280;7757;52.626;4.746;2023-02-16T07:12:38;101999.38;;;14.97;64.02
15314;BME280;7757;52.626;4.746;2023-02-16T07:15:25;102000.91;;;14.99;63.80
15314;BME280;7757;52.626;4.746;2023-02-16T07:18:10;102003.59;;;14.99;64.10
15314;BME280;7757;52.626;4.746;2023-02-16T07:20:56;101998.84;;;15.01;64.78
15314;BME280;7757;52.626;4.746;2023-02-16T07:23:41;102005.06;;;15.17;64.37
15314;BME280;7757;52.626;4.746;2023-02-16T07:26:27;102006.44;;;15.13;64.50
15314;BME280;7757;52.626;4.746;2023-02-16T07:29:12;102021.97;;;15.11;64.84
15314;BME280;7757;52.626;4.746;2023-02-16T07:31:59;101987.50;;;14.91;64.69
15314;BME280;7757;52.626;4.746;2023-02-16T07:34:47;102019.47;;;15.09;65.05
15314;BME280;7757;52.626;4.746;2023-02-16T07:37:33;102019.47;;;15.09;65.30
15314;BME280;7757;52.626;4.746;2023-02-16T07:40:18;102021.88;;;15.04;64.84
15314;BME280;7757;52.626;4.746;2023-02-16T07:43:05;102024.84;;;15.09;64.84
15314;BME280;7757;52.626;4.746;2023-02-16T07:45:50;102019.00;;;15.05;64.97
15314;BME280;7757;52.626;4.746;2023-02-16T07:48:37;102025.69;;;15.09;64.59
15314;BME280;7757;52.626;4.746;2023-02-16T07:51:23;102029.88;;;15.12;64.30
15314;BME280;7757;52.626;4.746;2023-02-16T07:54:08;102023.00;;;15.09;65.27
15314;BME280;7757;52.626;4.746;2023-02-16T07:56:54;102041.69;;;15.26;65.68
15314;BME280;7757;52.626;4.746;2023-02-16T07:59:39;102025.84;;;15.37;64.88
15314;BME280;7757;52.626;4.746;2023-02-16T08:02:24;102026.41;;;15.18;64.60
15314;BME280;7757;52.626;4.746;2023-02-16T08:05:12;102041.69;;;15.26;64.92
15314;BME280;7757;52.626;4.746;2023-02-16T08:07:57;102050.59;;;15.26;64.41
15314;BME280;7757;52.626;4.746;2023-02-16T08:10:42;102043.91;;;15.22;64.83
15314;BME280;7757;52.626;4.746;2023-02-16T08:13:28;102044.53;;;15.24;64.62
15314;BME280;7757;52.626;4.746;2023-02-16T08:16:16;102043.31;;;15.27;64.60
15314;BME280;7757;52.626;4.746;2023-02-16T08:19:01;102040.00;;;15.25;63.91
15314;BME280;7757;52.626;4.746;2023-02-16T08:21:49;102045.00;;;15.28;64.12
15314;BME280;7757;52.626;4.746;2023-02-16T08:24:34;102042.31;;;15.28;64.54
15314;BME280;7757;52.626;4.746;2023-02-16T08:27:20;102052.00;;;15.22;64.45
15314;BME280;7757;52.626;4.746;2023-02-16T08:30:07;102026.03;;;15.21;63.91
15314;BME280;7757;52.626;4.746;2023-02-16T08:32:55;102026.50;;;15.25;64.30
15314;BME280;7757;52.626;4.746;2023-02-16T08:35:44;102035.06;;;15.28;64.43
15314;BME280;7757;52.626;4.746;2023-02-16T08:38:30;102040.09;;;15.31;64.30
15314;BME280;7757;52.626;4.746;2023-02-16T08:41:19;102029.31;;;15.31;63.63
15314;BME280;7757;52.626;4.746;2023-02-16T08:44:05;102043.50;;;15.40;64.45
15314;BME280;7757;52.626;4.746;2023-02-16T08:46:52;102032.16;;;15.44;64.52
15314;BME280;7757;52.626;4.746;2023-02-16T08:49:38;102033.38;;;15.42;63.97
15314;BME280;7757;52.626;4.746;2023-02-16T08:52:23;102035.16;;;15.35;64.38
15314;BME280;7757;52.626;4.746;2023-02-16T08:55:10;102039.97;;;15.39;63.83
15314;BME280;7757;52.626;4.746;2023-02-16T08:57:56;102035.69;;;15.45;63.60
15314;BME280;7757;52.626;4.746;2023-02-16T09:00:43;102030.03;;;15.40;64.20
15314;BME280;7757;52.626;4.746;2023-02-16T09:03:29;102025.47;;;15.40;64.43
15314;BME280;7757;52.626;4.746;2023-02-16T09:06:18;102032.16;;;15.44;63.80
15314;BME280;7757;52.626;4.746;2023-02-16T09:09:04;102025.28;;;15.42;64.05
15314;BME280;7757;52.626;4.746;2023-02-16T09:11:53;102024.63;;;15.40;64.04
15314;BME280;7757;52.626;4.746;2023-02-16T09:14:38;102021.75;;;15.41;63.99
15314;BME280;7757;52.626;4.746;2023-02-16T09:17:24;102001.97;;;15.34;63.88
15314;BME280;7757;52.626;4.746;2023-02-16T09:20:11;102014.97;;;15.45;63.35
15314;BME280;7757;52.626;4.746;2023-02-16T09:22:56;102009.56;;;15.45;63.15
15314;BME280;7757;52.626;4.746;2023-02-16T09:25:42;102021.69;;;15.49;63.85
15314;BME280;7757;52.626;4.746;2023-02-16T09:28:28;102026.72;;;15.52;64.01
15314;BME280;7757;52.626;4.746;2023-02-16T09:31:16;102033.94;;;15.52;63.79
15314;BME280;7757;52.626;4.746;2023-02-16T09:34:04;102028.72;;;15.50;63.73
15314;BME280;7757;52.626;4.746;2023-02-16T09:36:51;102041.19;;;15.51;63.60
15314;BME280;7757;52.626;4.746;2023-02-16T09:39:36;102037.75;;;15.57;63.15
15314;BME280;7757;52.626;4.746;2023-02-16T09:42:29;102038.59;;;15.58;63.80
15314;BME280;7757;52.626;4.746;2023-02-16T09:45:20;102013.41;;;15.51;63.52
15314;BME280;7757;52.626;4.746;2023-02-16T09:48:10;102028.28;;;15.61;63.63
15314;BME280;7757;52.626;4.746;2023-02-16T09:51:02;102041.75;;;15.61;63.50
15314;BME280;7757;52.626;4.746;2023-02-16T09:53:54;102039.69;;;15.63;63.22
15314;BME280;7757;52.626;4.746;2023-02-16T09:56:46;102043.50;;;15.69;63.63
15314;BME280;7757;52.626;4.746;2023-02-16T09:59:40;102029.91;;;15.62;63.49
15314;BME280;7757;52.626;4.746;2023-02-16T10:02:39;102058.19;;;15.67;63.79
15314;BME280;7757;52.626;4.746;2023-02-16T10:05:30;102055.50;;;15.67;63.61
15314;BME280;7757;52.626;4.746;2023-02-16T10:08:23;102056.88;;;15.62;63.84
15314;BME280;7757;52.626;4.746;2023-02-16T10:11:15;102048.28;;;15.52;63.91
15314;BME280;7757;52.626;4.746;2023-02-16T10:14:22;102053.34;;;15.62;63.78
15314;BME280;7757;52.626;4.746;2023-02-16T10:17:17;102056.78;;;15.71;63.26
15314;BME280;7757;52.626;4.746;2023-02-16T10:20:11;102057.31;;;15.81;62.87
15314;BME280;7757;52.626;4.746;2023-02-16T10:23:03;102058.03;;;15.89;63.44
15314;BME280;7757;52.626;4.746;2023-02-16T10:25:54;102025.25;;;15.71;62.80
15314;BME280;7757;52.626;4.746;2023-02-16T10:28:44;102005.94;;;15.68;63.07
15314;BME280;7757;52.626;4.746;2023-02-16T10:31:35;102017.44;;;15.76;62.70
15314;BME280;7757;52.626;4.746;2023-02-16T10:34:32;102040.44;;;15.93;62.73
15314;BME280;7757;52.626;4.746;2023-02-16T10:37:32;102035.44;;;15.90;63.29
15314;BME280;7757;52.626;4.746;2023-02-16T10:40:29;102020.00;;;15.84;62.67
15314;BME280;7757;52.626;4.746;2023-02-16T10:43:19;102029.00;;;15.91;62.39
15314;BME280;7757;52.626;4.746;2023-02-16T10:46:08;102036.06;;;15.92;62.76
15314;BME280;7757;52.626;4.746;2023-02-16T10:48:55;102029.66;;;15.93;62.96
15314;BME280;7757;52.626;4.746;2023-02-16T10:51:44;102035.69;;;15.95;62.88
15314;BME280;7757;52.626;4.746;2023-02-16T10:54:35;102025.41;;;15.84;63.31
15314;BME280;7757;52.626;4.746;2023-02-16T10:57:25;102026.69;;;15.88;62.99
15314;BME280;7757;52.626;4.746;2023-02-16T11:00:15;102027.59;;;15.95;62.58
15314;BME280;7757;52.626;4.746;2023-02-16T11:03:03;102018.03;;;15.93;63.00
15314;BME280;7757;52.626;4.746;2023-02-16T11:05:54;102025.72;;;15.96;63.27
15314;BME280;7757;52.626;4.746;2023-02-16T11:08:46;102024.72;;;15.97;63.10
15314;BME280;7757;52.626;4.746;2023-02-16T11:11:37;102014.72;;;15.97;63.48
15314;BME280;7757;52.626;4.746;2023-02-16T11:14:25;102015.56;;;15.98;62.64
15314;BME280;7757;52.626;4.746;2023-02-16T11:17:15;102003.94;;;15.97;63.05
15314;BME280;7757;52.626;4.746;2023-02-16T11:20:04;101998.53;;;15.97;62.78
15314;BME280;7757;52.626;4.746;2023-02-16T11:22:49;102007.69;;;15.96;62.70
15314;BME280;7757;52.626;4.746;2023-02-16T11:25:35;102002.16;;;16.04;62.38
15314;BME280;7757;52.626;4.746;2023-02-16T11:28:27;101998.44;;;16.05;63.40
15314;BME280;7757;52.626;4.746;2023-02-16T11:31:17;101989.50;;;16.05;63.00
15314;BME280;7757;52.626;4.746;2023-02-16T11:34:05;101990.38;;;16.12;62.76
15314;BME280;7757;52.626;4.746;2023-02-16T11:37:00;101988.91;;;16.09;62.40
15314;BME280;7757;52.626;4.746;2023-02-16T11:39:48;101977.03;;;16.04;62.90
15314;BME280;7757;52.626;4.746;2023-02-16T11:42:37;101999.13;;;16.14;62.74
15314;BME280;7757;52.626;4.746;2023-02-16T11:45:27;101973.31;;;16.05;62.34
15314;BME280;7757;52.626;4.746;2023-02-16T11:48:24;101987.66;;;16.12;62.14
15314;BME280;7757;52.626;4.746;2023-02-16T11:51:13;101976.47;;;16.08;62.97
15314;BME280;7757;52.626;4.746;2023-02-16T11:54:02;101972.31;;;16.12;62.38
15314;BME280;7757;52.626;4.746;2023-02-16T11:57:00;101964.22;;;16.12;62.59
15314;BME280;7757;52.626;4.746;2023-02-16T11:59:46;101962.81;;;16.16;62.46
15314;BME280;7757;52.626;4.746;2023-02-16T12:02:48;101949.88;;;16.12;62.63
15314;BME280;7757;52.626;4.746;2023-02-16T12:05:53;101947.91;;;16.21;62.85
15314;BME280;7757;52.626;4.746;2023-02-16T12:08:58;101950.41;;;16.22;62.24
15314;BME280;7757;52.626;4.746;2023-02-16T12:11:55;101953.34;;;16.27;62.57
15314;BME280;7757;52.626;4.746;2023-02-16T12:14:50;101944.59;;;16.25;62.48
15314;BME280;7757;52.626;4.746;2023-02-16T12:17:51;101942.50;;;16.21;62.81
15314;BME280;7757;52.626;4.746;2023-02-16T12:20:46;101912.75;;;16.14;62.63
15314;BME280;7757;52.626;4.746;2023-02-16T12:23:39;101938.19;;;16.26;62.20
15314;BME280;7757;52.626;4.746;2023-02-16T12:26:36;101937.94;;;16.21;62.54
15314;BME280;7757;52.626;4.746;2023-02-16T12:29:35;101931.13;;;16.25;62.78
15314;BME280;7757;52.626;4.746;2023-02-16T12:32:38;101923.22;;;16.24;62.27
15314;BME280;7757;52.626;4.746;2023-02-16T12:35:49;101935.72;;;16.31;63.21
15314;BME280;7757;52.626;4.746;2023-02-16T12:38:47;101925.53;;;16.27;62.78
15314;BME280;7757;52.626;4.746;2023-02-16T12:41:44;101933.75;;;16.18;63.28
15314;BME280;7757;52.626;4.746;2023-02-16T12:44:34;101918.72;;;16.09;63.18
15314;BME280;7757;52.626;4.746;2023-02-16T12:47:26;101881.03;;;15.95;63.38
15314;BME280;7757;52.626;4.746;2023-02-16T12:50:17;101912.56;;;16.15;62.95
15314;BME280;7757;52.626;4.746;2023-02-16T12:53:07;101903.44;;;16.16;62.86
15314;BME280;7757;52.626;4.746;2023-02-16T12:56:01;101894.25;;;16.11;62.44
15314;BME280;7757;52.626;4.746;2023-02-16T12:58:50;101887.41;;;16.15;62.88
15314;BME280;7757;52.626;4.746;2023-02-16T13:01:38;101870.81;;;16.11;62.84
15314;BME280;7757;52.626;4.746;2023-02-16T13:04:39;101875.16;;;16.12;63.42
15314;BME280;7757;52.626;4.746;2023-02-16T13:07:30;101880.63;;;16.19;63.40
15314;BME280;7757;52.626;4.746;2023-02-16T13:10:22;101865.81;;;16.15;62.66
15314;BME280;7757;52.626;4.746;2023-02-16T13:13:11;101876.88;;;16.20;62.78
15314;BME280;7757;52.626;4.746;2023-02-16T13:16:05;101854.63;;;16.18;63.32
15314;BME280;7757;52.626;4.746;2023-02-16T13:18:55;101863.78;;;16.17;62.41
15314;BME280;7757;52.626;4.746;2023-02-16T13:22:00;101860.88;;;16.18;63.15
15314;BME280;7757;52.626;4.746;2023-02-16T13:24:59;101839.44;;;16.10;62.86
15314;BME280;7757;52.626;4.746;2023-02-16T13:27:53;101855.28;;;16.20;62.62
15314;BME280;7757;52.626;4.746;2023-02-16T13:31:05;101843.22;;;16.16;63.36
15314;BME280;7757;52.626;4.746;2023-02-16T13:34:10;101850.47;;;16.15;62.80
15314;BME280;7757;52.626;4.746;2023-02-16T13:37:11;101846.31;;;16.13;63.21
15314;BME280;7757;52.626;4.746;2023-02-16T13:40:32;101847.16;;;16.13;62.98
15314;BME280;7757;52.626;4.746;2023-02-16T13:43:28;101843.81;;;16.11;62.92
15314;BME280;7757;52.626;4.746;2023-02-16T13:46:20;101845.06;;;16.09;62.72
15314;BME280;7757;52.626;4.746;2023-02-16T13:49:23;101835.91;;;16.10;63.33
15314;BME280;7757;52.626;4.746;2023-02-16T13:52:28;101821.56;;;16.09;63.43
15314;BME280;7757;52.626;4.746;2023-02-16T13:55:21;101826.75;;;16.04;63.38
15314;BME280;7757;52.626;4.746;2023-02-16T13:58:28;101831.91;;;15.99;63.70
15314;BME280;7757;52.626;4.746;2023-02-16T14:01:38;101825.47;;;16.00;63.75
15314;BME280;7757;52.626;4.746;2023-02-16T14:07:45;101809.94;;;16.02;63.22
15314;BME280;7757;52.626;4.746;2023-02-16T14:10:58;101817.41;;;16.07;63.97
15314;BME280;7757;52.626;4.746;2023-02-16T14:13:49;101823.22;;;16.04;63.81
15314;BME280;7757;52.626;4.746;2023-02-16T14:16:35;101813.84;;;16.00;63.74
15314;BME280;7757;52.626;4.746;2023-02-16T14:19:23;101821.28;;;15.98;64.08
15314;BME280;7757;52.626;4.746;2023-02-16T14:22:09;101817.75;;;15.97;64.16
15314;BME280;7757;52.626;4.746;2023-02-16T14:24:57;101814.03;;;15.98;63.65
15314;BME280;7757;52.626;4.746;2023-02-16T14:27:46;101816.75;;;15.98;63.96
15314;BME280;7757;52.626;4.746;2023-02-16T14:30:35;101808.63;;;15.98;63.84
15314;BME280;7757;52.626;4.746;2023-02-16T14:33:37;101806.72;;;15.92;63.78
15314;BME280;7757;52.626;4.746;2023-02-16T14:36:25;101812.56;;;15.96;63.94
15314;BME280;7757;52.626;4.746;2023-02-16T14:39:20;101798.63;;;15.92;64.53
15314;BME280;7757;52.626;4.746;2023-02-16T14:42:07;101810.94;;;16.01;64.63
15314;BME280;7757;52.626;4.746;2023-02-16T14:45:02;101818.59;;;15.98;63.84
15314;BME280;7757;52.626;4.746;2023-02-16T14:47:59;101809.88;;;15.96;64.70
15314;BME280;7757;52.626;4.746;2023-02-16T14:50:58;101804.25;;;15.91;63.97
15314;BME280;7757;52.626;4.746;2023-02-16T14:54:05;101797.78;;;15.85;64.05
15314;BME280;7757;52.626;4.746;2023-02-16T14:56:57;101807.13;;;15.89;64.34
15314;BME280;7757;52.626;4.746;2023-02-16T14:59:49;101798.19;;;15.89;63.78
15314;BME280;7757;52.626;4.746;2023-02-16T15:02:38;101801.09;;;15.87;64.51
15314;BME280;7757;52.626;4.746;2023-02-16T15:05:27;101788.72;;;15.99;65.15
15314;BME280;7757;52.626;4.746;2023-02-16T15:08:16;101801.44;;;16.05;64.93